createdAt,value
2022-11-25T00:00:23.725Z,458.00
2022-11-25T00:01:18.831Z,463.00
2022-11-25T00:02:13.951Z,463.00
2022-11-25T00:03:08.893Z,462.00
2022-11-25T00:04:03.893Z,461.00
2022-11-25T00:04:58.889Z,459.00
2022-11-25T00:05:53.958Z,459.00
2022-11-25T00:06:49.050Z,462.00
2022-11-25T00:07:44.122Z,463.00
2022-11-25T00:08:39.162Z,466.00
2022-11-25T00:09:34.165Z,471.00
2022-11-25T00:10:29.210Z,468.00
2022-11-25T00:11:24.221Z,466.00
2022-11-25T00:12:19.266Z,469.00
2022-11-25T00:13:14.293Z,469.00
2022-11-25T00:14:09.297Z,466.00
2022-11-25T00:15:06.909Z,466.00
2022-11-25T00:16:01.976Z,468.00
2022-11-25T00:16:57.219Z,469.00
2022-11-25T00:17:51.971Z,475.00
2022-11-25T00:18:47.011Z,470.00
2022-11-25T00:19:42.022Z,464.00
2022-11-25T00:20:37.032Z,468.00
2022-11-25T00:21:32.029Z,464.00
2022-11-25T00:22:27.127Z,459.00
2022-11-25T00:23:22.147Z,468.00
2022-11-25T00:24:17.178Z,471.00
2022-11-25T00:25:12.207Z,466.00
2022-11-25T00:26:07.218Z,469.00
2022-11-25T00:27:02.235Z,466.00
2022-11-25T00:27:57.319Z,471.00
2022-11-25T00:28:52.315Z,475.00
2022-11-25T00:29:47.370Z,463.00
2022-11-25T00:30:42.367Z,468.00
2022-11-25T00:31:37.531Z,467.00
2022-11-25T00:32:32.679Z,462.00
2022-11-25T00:33:27.702Z,464.00
2022-11-25T00:34:22.776Z,463.00
2022-11-25T00:35:17.771Z,462.00
2022-11-25T00:36:12.877Z,463.00
2022-11-25T00:37:07.893Z,467.00
2022-11-25T00:38:02.920Z,468.00
2022-11-25T00:38:58.092Z,472.00
2022-11-25T00:39:53.238Z,467.00
2022-11-25T00:40:48.583Z,466.00
2022-11-25T00:41:43.685Z,468.00
2022-11-25T00:42:38.698Z,468.00
2022-11-25T00:43:33.740Z,480.00
2022-11-25T00:44:28.768Z,472.00
2022-11-25T00:45:23.801Z,471.00
2022-11-25T00:46:18.950Z,469.00
2022-11-25T00:47:17.638Z,471.00
2022-11-25T00:48:12.650Z,468.00
2022-11-25T00:49:07.662Z,467.00
2022-11-25T00:50:02.694Z,463.00
2022-11-25T00:50:57.831Z,462.00
2022-11-25T00:51:53.206Z,466.00
2022-11-25T00:52:48.040Z,458.00
2022-11-25T00:53:43.192Z,460.00
2022-11-25T00:54:38.493Z,456.00
2022-11-25T00:55:33.351Z,458.00
2022-11-25T00:56:28.388Z,459.00
2022-11-25T00:57:23.526Z,461.00
2022-11-25T00:58:18.532Z,465.00
2022-11-25T00:59:13.619Z,458.00
2022-11-25T01:00:08.587Z,459.00
2022-11-25T01:01:03.898Z,459.00
2022-11-25T01:02:00.235Z,464.00
2022-11-25T01:02:55.227Z,459.00
2022-11-25T01:03:50.385Z,459.00
2022-11-25T01:04:45.420Z,461.00
2022-11-25T01:05:40.419Z,463.00
2022-11-25T01:06:35.805Z,464.00
2022-11-25T01:07:30.579Z,461.00
2022-11-25T01:08:25.585Z,465.00
2022-11-25T01:09:20.702Z,460.00
2022-11-25T01:10:15.823Z,465.00
2022-11-25T01:11:10.937Z,462.00
2022-11-25T01:12:05.872Z,464.00
2022-11-25T01:13:00.913Z,464.00
2022-11-25T01:14:01.715Z,473.00
2022-11-25T01:14:55.378Z,471.00
2022-11-25T01:15:50.441Z,470.00
2022-11-25T01:16:45.611Z,474.00
2022-11-25T01:17:40.527Z,477.00
2022-11-25T01:18:35.544Z,472.00
2022-11-25T01:19:30.621Z,475.00
2022-11-25T01:20:25.692Z,472.00
2022-11-25T01:21:20.801Z,470.00
2022-11-25T01:22:15.945Z,472.00
2022-11-25T01:23:12.360Z,468.00
2022-11-25T01:24:07.555Z,470.00
2022-11-25T01:25:03.313Z,474.00
2022-11-25T01:25:58.449Z,473.00
2022-11-25T01:26:53.919Z,471.00
2022-11-25T01:27:49.525Z,475.00
2022-11-25T01:28:44.701Z,477.00
2022-11-25T01:29:40.429Z,479.00
2022-11-25T01:30:40.884Z,475.00
2022-11-25T01:31:32.037Z,472.00
2022-11-25T01:32:26.574Z,472.00
2022-11-25T01:33:21.742Z,468.00
2022-11-25T01:34:16.925Z,470.00
2022-11-25T01:35:13.299Z,472.00
2022-11-25T01:36:08.661Z,471.00
2022-11-25T01:37:04.382Z,474.00
2022-11-25T01:37:59.517Z,479.00
2022-11-25T01:38:54.750Z,476.00
2022-11-25T01:39:50.450Z,478.00
2022-11-25T01:40:45.646Z,473.00
2022-11-25T01:41:41.553Z,472.00
2022-11-25T01:42:36.597Z,473.00
2022-11-25T01:43:31.930Z,474.00
2022-11-25T01:44:27.672Z,471.00
2022-11-25T01:45:25.582Z,475.00
2022-11-25T01:46:19.195Z,472.00
2022-11-25T01:47:13.322Z,463.00
2022-11-25T01:48:09.173Z,473.00
2022-11-25T01:49:04.373Z,470.00
2022-11-25T01:49:59.524Z,465.00
2022-11-25T01:50:55.924Z,471.00
2022-11-25T01:51:51.253Z,467.00
2022-11-25T01:52:46.953Z,465.00
2022-11-25T01:53:42.121Z,466.00
2022-11-25T01:54:37.539Z,468.00
2022-11-25T01:55:33.170Z,474.00
2022-11-25T01:56:28.316Z,466.00
2022-11-25T01:57:24.303Z,466.00
2022-11-25T01:58:19.355Z,465.00
2022-11-25T01:59:14.515Z,473.00
2022-11-25T02:00:10.911Z,466.00
2022-11-25T02:01:06.234Z,468.00
2022-11-25T02:02:02.149Z,471.00
2022-11-25T02:02:57.195Z,467.00
2022-11-25T02:03:52.361Z,471.00
2022-11-25T02:04:48.238Z,469.00
2022-11-25T02:05:43.364Z,466.00
2022-11-25T02:06:39.355Z,469.00
2022-11-25T02:07:34.429Z,462.00
2022-11-25T02:08:29.581Z,465.00
2022-11-25T02:09:25.284Z,462.00
2022-11-25T02:10:20.538Z,465.00
2022-11-25T02:11:15.747Z,464.00
2022-11-25T02:12:12.173Z,466.00
2022-11-25T02:13:07.362Z,470.00
2022-11-25T02:14:03.124Z,466.00
2022-11-25T02:14:58.214Z,462.00
2022-11-25T02:15:53.495Z,461.00
2022-11-25T02:16:48.609Z,466.00
2022-11-25T02:17:43.778Z,464.00
2022-11-25T02:18:38.812Z,464.00
2022-11-25T02:19:33.800Z,468.00
2022-11-25T02:20:28.867Z,468.00
2022-11-25T02:21:23.881Z,470.00
2022-11-25T02:22:18.901Z,462.00
2022-11-25T02:23:13.966Z,471.00
2022-11-25T02:24:09.069Z,463.00
2022-11-25T02:25:04.100Z,471.00
2022-11-25T02:25:59.066Z,465.00
2022-11-25T02:26:54.218Z,465.00
2022-11-25T02:27:49.201Z,474.00
2022-11-25T02:28:45.934Z,471.00
2022-11-25T02:29:41.028Z,465.00
2022-11-25T02:30:36.203Z,468.00
2022-11-25T02:31:31.383Z,462.00
2022-11-25T02:32:26.404Z,467.00
2022-11-25T02:33:21.406Z,469.00
2022-11-25T02:34:16.465Z,464.00
2022-11-25T02:35:11.475Z,464.00
2022-11-25T02:36:06.675Z,464.00
2022-11-25T02:37:01.744Z,464.00
2022-11-25T02:37:56.929Z,464.00
2022-11-25T02:38:51.903Z,463.00
2022-11-25T02:39:46.904Z,457.00
2022-11-25T02:40:41.989Z,469.00
2022-11-25T02:41:37.125Z,469.00
2022-11-25T02:42:32.108Z,456.00
2022-11-25T02:43:27.354Z,470.00
2022-11-25T02:44:22.228Z,462.00
2022-11-25T02:45:17.385Z,466.00
2022-11-25T02:46:15.012Z,471.00
2022-11-25T02:47:09.042Z,473.00
2022-11-25T02:48:03.230Z,477.00
2022-11-25T02:49:08.775Z,475.00
2022-11-25T02:49:54.663Z,473.00
2022-11-25T02:50:48.868Z,468.00
2022-11-25T02:51:44.124Z,475.00
2022-11-25T02:52:39.266Z,478.00
2022-11-25T02:53:34.428Z,473.00
2022-11-25T02:54:33.497Z,477.00
2022-11-25T02:55:28.292Z,476.00
2022-11-25T02:56:23.461Z,476.00
2022-11-25T02:57:18.614Z,475.00
2022-11-25T02:58:14.023Z,472.00
2022-11-25T02:59:09.155Z,479.00
2022-11-25T03:00:04.212Z,474.00
2022-11-25T03:00:59.280Z,474.00
2022-11-25T03:01:54.325Z,488.00
2022-11-25T03:02:52.753Z,474.00
2022-11-25T03:03:47.947Z,475.00
2022-11-25T03:04:43.369Z,474.00
2022-11-25T03:05:38.299Z,473.00
2022-11-25T03:06:33.448Z,471.00
2022-11-25T03:07:29.499Z,472.00
2022-11-25T03:08:24.616Z,476.00
2022-11-25T03:09:19.797Z,477.00
2022-11-25T03:10:15.577Z,480.00
2022-11-25T03:11:10.739Z,472.00
2022-11-25T03:12:06.593Z,480.00
2022-11-25T03:13:01.633Z,475.00
2022-11-25T03:13:56.798Z,475.00
2022-11-25T03:14:52.886Z,472.00
2022-11-25T03:15:47.906Z,474.00
2022-11-25T03:16:43.392Z,470.00
2022-11-25T03:17:39.371Z,479.00
2022-11-25T03:18:34.710Z,474.00
2022-11-25T03:19:30.421Z,479.00
2022-11-25T03:20:25.745Z,477.00
2022-11-25T03:21:21.042Z,477.00
2022-11-25T03:22:16.786Z,471.00
2022-11-25T03:23:11.996Z,478.00
2022-11-25T03:24:07.872Z,477.00
2022-11-25T03:25:03.019Z,478.00
2022-11-25T03:25:58.485Z,480.00
2022-11-25T03:26:54.102Z,479.00
2022-11-25T03:27:49.269Z,479.00
2022-11-25T03:28:44.422Z,474.00
2022-11-25T03:29:40.954Z,475.00
2022-11-25T03:30:36.145Z,480.00
2022-11-25T03:31:32.054Z,478.00
2022-11-25T03:32:27.190Z,478.00
2022-11-25T03:33:22.520Z,477.00
2022-11-25T03:34:18.266Z,475.00
2022-11-25T03:35:13.454Z,483.00
2022-11-25T03:36:09.178Z,477.00
2022-11-25T03:37:04.418Z,478.00
2022-11-25T03:37:59.682Z,475.00
2022-11-25T03:38:55.557Z,481.00
2022-11-25T03:39:50.736Z,478.00
2022-11-25T03:40:45.967Z,477.00
2022-11-25T03:41:42.227Z,476.00
2022-11-25T03:42:37.541Z,472.00
2022-11-25T03:43:33.255Z,474.00
2022-11-25T03:44:28.428Z,474.00
2022-11-25T03:45:23.630Z,473.00
2022-11-25T03:46:19.477Z,470.00
2022-11-25T03:47:14.642Z,468.00
2022-11-25T03:48:10.664Z,467.00
2022-11-25T03:49:05.703Z,468.00
2022-11-25T03:50:01.161Z,468.00
2022-11-25T03:50:56.941Z,463.00
2022-11-25T03:51:52.116Z,469.00
2022-11-25T03:52:47.396Z,470.00
2022-11-25T03:53:43.833Z,475.00
2022-11-25T03:54:39.008Z,472.00
2022-11-25T03:55:35.049Z,476.00
2022-11-25T03:56:30.025Z,477.00
2022-11-25T03:57:25.475Z,466.00
2022-11-25T03:58:21.087Z,466.00
2022-11-25T03:59:16.503Z,464.00
2022-11-25T04:00:12.270Z,461.00
2022-11-25T04:01:07.541Z,462.00
2022-11-25T04:02:02.764Z,469.00
2022-11-25T04:02:58.381Z,463.00
2022-11-25T04:03:53.546Z,465.00
2022-11-25T04:04:48.728Z,463.00
2022-11-25T04:05:45.133Z,463.00
2022-11-25T04:06:40.336Z,465.00
2022-11-25T04:07:35.546Z,469.00
2022-11-25T04:08:30.739Z,465.00
2022-11-25T04:09:27.287Z,460.00
2022-11-25T04:10:22.498Z,470.00
2022-11-25T04:11:17.765Z,469.00
2022-11-25T04:12:14.174Z,473.00
2022-11-25T04:13:09.353Z,476.00
2022-11-25T04:14:05.235Z,470.00
2022-11-25T04:15:00.363Z,464.00
2022-11-25T04:15:55.825Z,463.00
2022-11-25T04:16:51.532Z,470.00
2022-11-25T04:17:46.765Z,469.00
2022-11-25T04:18:42.492Z,465.00
2022-11-25T04:19:37.799Z,470.00
2022-11-25T04:20:33.091Z,466.00
2022-11-25T04:21:28.836Z,468.00
2022-11-25T04:22:24.021Z,472.00
2022-11-25T04:23:19.203Z,468.00
2022-11-25T04:24:15.560Z,471.00
2022-11-25T04:25:10.879Z,471.00
2022-11-25T04:26:06.040Z,474.00
2022-11-25T04:27:01.385Z,467.00
2022-11-25T04:27:56.661Z,469.00
2022-11-25T04:28:53.120Z,477.00
2022-11-25T04:29:47.597Z,474.00
2022-11-25T04:30:42.890Z,477.00
2022-11-25T04:31:38.733Z,476.00
2022-11-25T04:32:33.897Z,475.00
2022-11-25T04:33:29.094Z,475.00
2022-11-25T04:34:24.258Z,476.00
2022-11-25T04:35:19.426Z,474.00
2022-11-25T04:36:14.648Z,479.00
2022-11-25T04:37:11.055Z,478.00
2022-11-25T04:38:06.198Z,480.00
2022-11-25T04:39:01.400Z,479.00
2022-11-25T04:40:00.871Z,481.00
2022-11-25T04:40:56.032Z,480.00
2022-11-25T04:41:51.245Z,473.00
2022-11-25T04:42:46.397Z,471.00
2022-11-25T04:43:41.588Z,480.00
2022-11-25T04:44:36.928Z,469.00
2022-11-25T04:45:51.552Z,470.00
2022-11-25T04:46:29.229Z,474.00
2022-11-25T04:47:23.235Z,477.00
2022-11-25T04:48:18.360Z,472.00
2022-11-25T04:49:13.814Z,482.00
2022-11-25T04:50:08.853Z,475.00
2022-11-25T04:51:03.985Z,478.00
2022-11-25T04:51:59.052Z,475.00
2022-11-25T04:52:56.804Z,481.00
2022-11-25T04:53:51.931Z,477.00
2022-11-25T04:54:47.092Z,475.00
2022-11-25T04:55:42.226Z,474.00
2022-11-25T04:56:37.594Z,481.00
2022-11-25T04:57:33.324Z,481.00
2022-11-25T04:58:28.615Z,485.00
2022-11-25T04:59:23.954Z,486.00
2022-11-25T05:00:19.572Z,484.00
2022-11-25T05:01:14.853Z,487.00
2022-11-25T05:02:10.613Z,483.00
2022-11-25T05:03:05.751Z,485.00
2022-11-25T05:04:01.066Z,486.00
2022-11-25T05:04:56.675Z,487.00
2022-11-25T05:05:52.015Z,489.00
2022-11-25T05:06:47.177Z,485.00
2022-11-25T05:07:43.760Z,489.00
2022-11-25T05:08:38.947Z,488.00
2022-11-25T05:09:35.011Z,494.00
2022-11-25T05:10:30.010Z,489.00
2022-11-25T05:11:25.233Z,492.00
2022-11-25T05:12:20.970Z,491.00
2022-11-25T05:13:16.195Z,489.00
2022-11-25T05:14:11.917Z,489.00
2022-11-25T05:15:07.344Z,491.00
2022-11-25T05:16:02.429Z,489.00
2022-11-25T05:16:58.191Z,494.00
2022-11-25T05:17:53.405Z,494.00
2022-11-25T05:18:48.587Z,494.00
2022-11-25T05:19:44.862Z,490.00
2022-11-25T05:20:40.171Z,488.00
2022-11-25T05:21:35.896Z,486.00
2022-11-25T05:22:31.075Z,484.00
2022-11-25T05:23:26.290Z,483.00
2022-11-25T05:24:22.053Z,483.00
2022-11-25T05:25:17.224Z,483.00
2022-11-25T05:26:13.213Z,476.00
2022-11-25T05:27:08.257Z,476.00
2022-11-25T05:28:03.478Z,478.00
2022-11-25T05:28:59.236Z,484.00
2022-11-25T05:29:56.216Z,483.00
2022-11-25T05:30:49.890Z,482.00
2022-11-25T05:31:44.969Z,481.00
2022-11-25T05:32:40.013Z,490.00
2022-11-25T05:33:35.271Z,485.00
2022-11-25T05:34:30.166Z,494.00
2022-11-25T05:35:25.197Z,493.00
2022-11-25T05:36:20.289Z,488.00
2022-11-25T05:37:17.720Z,495.00
2022-11-25T05:38:11.425Z,493.00
2022-11-25T05:39:05.446Z,489.00
2022-11-25T05:40:00.557Z,493.00
2022-11-25T05:40:55.583Z,488.00
2022-11-25T05:41:53.057Z,503.00
2022-11-25T05:42:48.122Z,498.00
2022-11-25T05:43:43.214Z,486.00
2022-11-25T05:44:38.499Z,487.00
2022-11-25T05:45:33.391Z,499.00
2022-11-25T05:46:28.601Z,494.00
2022-11-25T05:47:23.459Z,487.00
2022-11-25T05:48:18.641Z,486.00
2022-11-25T05:49:13.896Z,498.00
2022-11-25T05:50:08.921Z,484.00
2022-11-25T05:51:04.005Z,489.00
2022-11-25T05:51:59.086Z,484.00
2022-11-25T05:52:54.167Z,487.00
2022-11-25T05:53:49.203Z,481.00
2022-11-25T05:54:44.304Z,484.00
2022-11-25T05:55:39.910Z,481.00
2022-11-25T05:56:35.107Z,492.00
2022-11-25T05:57:30.308Z,491.00
2022-11-25T05:58:25.531Z,487.00
2022-11-25T05:59:21.388Z,473.00
2022-11-25T06:00:16.608Z,486.00
2022-11-25T06:01:11.903Z,490.00
2022-11-25T06:02:08.281Z,493.00
2022-11-25T06:03:03.669Z,488.00
2022-11-25T06:03:59.349Z,482.00
2022-11-25T06:04:54.581Z,484.00
2022-11-25T06:05:49.922Z,467.00
2022-11-25T06:06:45.597Z,486.00
2022-11-25T06:07:40.890Z,477.00
2022-11-25T06:08:36.573Z,476.00
2022-11-25T06:09:31.757Z,471.00
2022-11-25T06:10:27.075Z,474.00
2022-11-25T06:11:22.744Z,480.00
2022-11-25T06:12:17.944Z,478.00
2022-11-25T06:13:13.196Z,480.00
2022-11-25T06:14:09.609Z,484.00
2022-11-25T06:15:04.801Z,481.00
2022-11-25T06:16:06.303Z,481.00
2022-11-25T06:16:56.377Z,478.00
2022-11-25T06:17:50.481Z,478.00
2022-11-25T06:18:45.554Z,472.00
2022-11-25T06:19:40.618Z,462.00
2022-11-25T06:20:35.665Z,463.00
2022-11-25T06:21:30.746Z,474.00
2022-11-25T06:22:25.813Z,475.00
2022-11-25T06:23:20.862Z,469.00
2022-11-25T06:24:15.995Z,471.00
2022-11-25T06:25:10.973Z,471.00
2022-11-25T06:26:06.067Z,479.00
2022-11-25T06:27:01.077Z,467.00
2022-11-25T06:28:14.980Z,476.00
2022-11-25T06:28:55.861Z,471.00
2022-11-25T06:29:50.198Z,479.00
2022-11-25T06:30:45.471Z,480.00
2022-11-25T06:31:40.612Z,473.00
2022-11-25T06:32:37.530Z,465.00
2022-11-25T06:33:30.723Z,466.00
2022-11-25T06:34:25.751Z,471.00
2022-11-25T06:35:20.863Z,471.00
2022-11-25T06:36:15.820Z,474.00
2022-11-25T06:37:10.845Z,473.00
2022-11-25T06:38:05.939Z,472.00
2022-11-25T06:39:00.987Z,464.00
2022-11-25T06:39:55.938Z,468.00
2022-11-25T06:40:51.807Z,474.00
2022-11-25T06:41:46.152Z,479.00
2022-11-25T06:42:41.313Z,474.00
2022-11-25T06:43:36.312Z,492.00
2022-11-25T06:44:31.400Z,483.00
2022-11-25T06:45:28.065Z,474.00
2022-11-25T06:46:25.428Z,489.00
2022-11-25T06:47:18.820Z,490.00
2022-11-25T06:48:14.089Z,495.00
2022-11-25T06:49:09.723Z,479.00
2022-11-25T06:50:04.944Z,496.00
2022-11-25T06:51:00.212Z,479.00
2022-11-25T06:51:55.539Z,486.00
2022-11-25T06:52:50.761Z,489.00
2022-11-25T06:53:46.062Z,480.00
2022-11-25T06:54:41.396Z,483.00
2022-11-25T06:55:36.707Z,486.00
2022-11-25T06:56:32.037Z,497.00
2022-11-25T06:57:27.421Z,497.00
2022-11-25T06:58:35.317Z,487.00
2022-11-25T06:59:19.618Z,481.00
2022-11-25T07:00:14.165Z,733.00
2022-11-25T07:01:09.473Z,578.00
2022-11-25T07:02:04.789Z,545.00
2022-11-25T07:03:00.795Z,676.00
2022-11-25T07:03:56.224Z,523.00
2022-11-25T07:04:51.622Z,505.00
2022-11-25T07:05:46.737Z,509.00
2022-11-25T07:06:41.767Z,517.00
2022-11-25T07:07:36.797Z,521.00
2022-11-25T07:08:34.128Z,553.00
2022-11-25T07:09:30.845Z,524.00
2022-11-25T07:10:25.811Z,522.00
2022-11-25T07:11:20.982Z,516.00
2022-11-25T07:12:15.970Z,505.00
2022-11-25T07:13:11.038Z,518.00
2022-11-25T07:14:06.378Z,517.00
2022-11-25T07:15:01.205Z,512.00
2022-11-25T07:15:56.367Z,525.00
2022-11-25T07:16:51.496Z,518.00
2022-11-25T07:17:46.447Z,516.00
2022-11-25T07:18:41.427Z,521.00
2022-11-25T07:19:36.841Z,523.00
2022-11-25T07:20:32.601Z,533.00
2022-11-25T07:21:28.001Z,527.00
2022-11-25T07:22:23.470Z,523.00
2022-11-25T07:23:19.158Z,520.00
2022-11-25T07:24:14.518Z,530.00
2022-11-25T07:25:10.307Z,530.00
2022-11-25T07:26:05.643Z,515.00
2022-11-25T07:27:01.383Z,516.00
2022-11-25T07:27:56.775Z,531.00
2022-11-25T07:28:52.204Z,529.00
2022-11-25T07:31:40.232Z,526.00
2022-11-25T07:32:35.033Z,526.00
2022-11-25T07:33:30.413Z,528.00
2022-11-25T07:34:25.802Z,521.00
2022-11-25T07:35:21.588Z,518.00
2022-11-25T07:36:16.992Z,514.00
2022-11-25T07:37:12.778Z,509.00
2022-11-25T07:38:08.179Z,501.00
2022-11-25T07:39:03.602Z,496.00
2022-11-25T07:39:59.311Z,497.00
2022-11-25T07:40:54.707Z,505.00
2022-11-25T07:41:50.467Z,501.00
2022-11-25T07:42:46.411Z,487.00
2022-11-25T07:43:41.807Z,502.00
2022-11-25T07:44:37.464Z,495.00
2022-11-25T07:45:32.935Z,488.00
2022-11-25T07:46:28.467Z,485.00
2022-11-25T07:47:24.176Z,482.00
2022-11-25T07:48:19.567Z,478.00
2022-11-25T07:49:15.523Z,471.00
2022-11-25T07:50:10.839Z,473.00
2022-11-25T07:51:06.341Z,486.00
2022-11-25T07:52:02.218Z,477.00
2022-11-25T07:52:57.566Z,472.00
2022-11-25T07:53:52.999Z,473.00
2022-11-25T07:54:49.291Z,469.00
2022-11-25T07:55:44.690Z,465.00
2022-11-25T07:56:40.793Z,462.00
2022-11-25T07:57:36.169Z,460.00
2022-11-25T07:58:31.707Z,467.00
2022-11-25T07:59:27.440Z,459.00
2022-11-25T08:00:22.898Z,470.00
2022-11-25T08:01:18.811Z,461.00
2022-11-25T08:02:14.143Z,461.00
2022-11-25T08:03:09.536Z,464.00
2022-11-25T08:04:05.269Z,458.00
2022-11-25T08:05:00.739Z,464.00
2022-11-25T08:05:56.186Z,470.00
2022-11-25T08:06:52.472Z,464.00
2022-11-25T08:07:47.966Z,469.00
2022-11-25T08:08:43.830Z,466.00
2022-11-25T08:09:39.620Z,465.00
2022-11-25T08:10:34.648Z,467.00
2022-11-25T08:11:30.287Z,477.00
2022-11-25T08:12:25.322Z,470.00
2022-11-25T08:13:20.395Z,464.00
2022-11-25T08:14:15.334Z,470.00
2022-11-25T08:15:10.454Z,474.00
2022-11-25T08:16:05.528Z,472.00
2022-11-25T08:17:00.520Z,473.00
2022-11-25T08:17:55.542Z,466.00
2022-11-25T08:18:50.788Z,468.00
2022-11-25T08:19:45.808Z,470.00
2022-11-25T08:20:40.895Z,465.00
2022-11-25T08:21:35.959Z,474.00
2022-11-25T08:22:33.192Z,475.00
2022-11-25T08:23:28.104Z,473.00
2022-11-25T08:24:23.223Z,471.00
2022-11-25T08:25:18.253Z,462.00
2022-11-25T08:26:13.309Z,462.00
2022-11-25T08:27:08.422Z,453.00
2022-11-25T08:28:03.363Z,451.00
2022-11-25T08:28:58.432Z,469.00
2022-11-25T08:29:53.660Z,460.00
2022-11-25T08:30:49.396Z,464.00
2022-11-25T08:31:44.927Z,467.00
2022-11-25T08:32:40.259Z,467.00
2022-11-25T08:33:35.723Z,471.00
2022-11-25T08:34:32.400Z,474.00
2022-11-25T08:35:27.898Z,471.00
2022-11-25T08:36:23.321Z,476.00
2022-11-25T08:37:18.769Z,477.00
2022-11-25T08:38:13.867Z,476.00
2022-11-25T08:39:29.098Z,485.00
2022-11-25T08:40:05.095Z,469.00
2022-11-25T08:40:59.059Z,487.00
2022-11-25T08:41:54.659Z,477.00
2022-11-25T08:42:50.238Z,484.00
2022-11-25T08:43:45.601Z,480.00
2022-11-25T08:44:41.358Z,472.00
2022-11-25T08:45:36.828Z,474.00
2022-11-25T08:46:32.381Z,487.00
2022-11-25T08:47:28.664Z,490.00
2022-11-25T08:48:24.168Z,482.00
2022-11-25T08:49:19.922Z,486.00
2022-11-25T08:50:15.356Z,476.00
2022-11-25T08:51:10.901Z,486.00
2022-11-25T08:52:06.751Z,472.00
2022-11-25T08:53:02.300Z,453.00
2022-11-25T08:53:57.940Z,445.00
2022-11-25T08:54:53.373Z,455.00
2022-11-25T08:55:48.813Z,456.00
2022-11-25T08:56:44.751Z,446.00
2022-11-25T08:57:40.190Z,448.00
2022-11-25T08:58:35.622Z,455.00
2022-11-25T08:59:31.945Z,465.00
2022-11-25T09:00:27.362Z,475.00
2022-11-25T09:01:23.343Z,473.00
2022-11-25T09:02:18.876Z,455.00
2022-11-25T09:03:14.305Z,459.00
2022-11-25T09:04:09.951Z,466.00
2022-11-25T09:05:05.469Z,462.00
2022-11-25T09:06:01.267Z,453.00
2022-11-25T09:06:56.896Z,457.00
2022-11-25T09:07:52.096Z,452.00
2022-11-25T09:08:47.910Z,449.00
2022-11-25T09:09:43.388Z,452.00
2022-11-25T09:10:38.885Z,457.00
2022-11-25T09:11:35.291Z,451.00
2022-11-25T09:12:30.700Z,441.00
2022-11-25T09:13:26.452Z,444.00
2022-11-25T09:14:21.994Z,442.00
2022-11-25T09:15:17.430Z,465.00
2022-11-25T09:16:13.221Z,463.00
2022-11-25T09:17:08.673Z,452.00
2022-11-25T09:18:04.443Z,454.00
2022-11-25T09:18:59.720Z,447.00
2022-11-25T09:19:55.092Z,460.00
2022-11-25T09:20:51.031Z,457.00
2022-11-25T09:21:46.467Z,463.00
2022-11-25T09:22:42.073Z,455.00
2022-11-25T09:23:38.229Z,463.00
2022-11-25T09:24:33.665Z,450.00
2022-11-25T09:25:29.512Z,455.00
2022-11-25T09:26:24.981Z,463.00
2022-11-25T09:27:20.560Z,457.00
2022-11-25T09:28:16.159Z,460.00
2022-11-25T09:29:11.608Z,454.00
2022-11-25T09:30:07.447Z,450.00
2022-11-25T09:31:02.844Z,451.00
2022-11-25T09:31:58.355Z,464.00
2022-11-25T09:32:54.064Z,457.00
2022-11-25T09:33:49.527Z,463.00
2022-11-25T09:34:44.957Z,461.00
2022-11-25T09:35:41.257Z,457.00
2022-11-25T09:36:36.741Z,456.00
2022-11-25T09:37:32.613Z,469.00
2022-11-25T09:38:28.355Z,471.00
2022-11-25T09:39:23.571Z,473.00
2022-11-25T09:40:19.291Z,463.00
2022-11-25T09:41:14.726Z,459.00
2022-11-25T09:42:10.438Z,456.00
2022-11-25T09:43:05.520Z,451.00
2022-11-25T09:44:00.541Z,459.00
2022-11-25T09:44:55.614Z,456.00
2022-11-25T09:45:50.646Z,464.00
2022-11-25T09:46:45.858Z,462.00
2022-11-25T09:47:46.511Z,460.00
2022-11-25T09:48:36.752Z,459.00
2022-11-25T09:49:30.807Z,450.00
2022-11-25T09:50:25.938Z,454.00
2022-11-25T09:51:20.959Z,452.00
2022-11-25T09:52:15.963Z,452.00
2022-11-25T09:53:15.169Z,455.00
2022-11-25T09:54:10.081Z,459.00
2022-11-25T09:55:05.119Z,459.00
2022-11-25T09:56:01.608Z,457.00
2022-11-25T09:56:55.211Z,463.00
2022-11-25T09:57:52.863Z,461.00
2022-11-25T09:58:46.392Z,460.00
2022-11-25T09:59:40.390Z,459.00
2022-11-25T10:00:35.424Z,467.00
2022-11-25T10:01:30.475Z,463.00
2022-11-25T10:02:25.745Z,461.00
2022-11-25T10:03:20.802Z,456.00
2022-11-25T10:04:19.894Z,464.00
2022-11-25T10:05:15.479Z,464.00
2022-11-25T10:06:10.817Z,457.00
2022-11-25T10:07:06.251Z,452.00
2022-11-25T10:08:02.103Z,457.00
2022-11-25T10:08:57.515Z,459.00
2022-11-25T10:09:53.168Z,455.00
2022-11-25T10:10:48.811Z,453.00
2022-11-25T10:11:44.218Z,456.00
2022-11-25T10:12:39.845Z,451.00
2022-11-25T10:13:35.432Z,466.00
2022-11-25T10:14:30.849Z,460.00
2022-11-25T10:15:26.273Z,449.00
2022-11-25T10:16:22.644Z,446.00
2022-11-25T10:17:17.988Z,445.00
2022-11-25T10:18:13.686Z,453.00
2022-11-25T10:19:09.237Z,452.00
2022-11-25T10:20:04.545Z,448.00
2022-11-25T10:21:00.686Z,459.00
2022-11-25T10:21:56.123Z,449.00
2022-11-25T10:22:51.912Z,461.00
2022-11-25T10:23:47.386Z,456.00
2022-11-25T10:24:43.227Z,456.00
2022-11-25T10:25:38.856Z,456.00
2022-11-25T10:26:34.274Z,449.00
2022-11-25T10:27:29.819Z,460.00
2022-11-25T10:28:25.990Z,456.00
2022-11-25T10:29:21.428Z,469.00
2022-11-25T10:30:17.272Z,453.00
2022-11-25T10:31:12.918Z,453.00
2022-11-25T10:32:08.208Z,459.00
2022-11-25T10:33:03.970Z,443.00
2022-11-25T10:33:59.352Z,446.00
2022-11-25T10:34:55.312Z,450.00
2022-11-25T10:35:50.568Z,444.00
2022-11-25T10:36:46.112Z,449.00
2022-11-25T10:37:42.136Z,447.00
2022-11-25T10:38:37.310Z,449.00
2022-11-25T10:39:32.754Z,448.00
2022-11-25T10:40:29.053Z,443.00
2022-11-25T10:41:24.480Z,447.00
2022-11-25T10:42:20.453Z,445.00
2022-11-25T10:43:15.745Z,457.00
2022-11-25T10:44:11.188Z,443.00
2022-11-25T10:45:06.841Z,437.00
2022-11-25T10:46:02.313Z,441.00
2022-11-25T10:47:13.369Z,437.00
2022-11-25T10:47:54.499Z,438.00
2022-11-25T10:48:49.387Z,438.00
2022-11-25T10:49:44.775Z,432.00
2022-11-25T10:50:40.506Z,430.00
2022-11-25T10:51:35.975Z,449.00
2022-11-25T10:52:31.423Z,450.00
2022-11-25T10:53:27.198Z,430.00
2022-11-25T10:54:27.690Z,432.00
2022-11-25T10:55:19.110Z,430.00
2022-11-25T10:56:14.549Z,432.00
2022-11-25T10:57:09.983Z,430.00
2022-11-25T10:58:05.475Z,444.00
2022-11-25T10:59:01.169Z,435.00
2022-11-25T10:59:56.527Z,436.00
2022-11-25T11:00:52.305Z,433.00
2022-11-25T11:01:47.747Z,439.00
2022-11-25T11:02:43.283Z,455.00
2022-11-25T11:03:38.961Z,434.00
2022-11-25T11:04:34.618Z,431.00
2022-11-25T11:05:29.828Z,439.00
2022-11-25T11:06:26.470Z,430.00
2022-11-25T11:07:21.853Z,439.00
2022-11-25T11:08:17.667Z,431.00
2022-11-25T11:09:13.114Z,436.00
2022-11-25T11:10:08.544Z,438.00
2022-11-25T11:11:04.357Z,431.00
2022-11-25T11:11:59.813Z,439.00
2022-11-25T11:12:55.225Z,434.00
2022-11-25T11:13:50.792Z,433.00
2022-11-25T11:14:46.158Z,429.00
2022-11-25T11:15:41.263Z,428.00
2022-11-25T11:16:36.285Z,431.00
2022-11-25T11:17:36.028Z,433.00
2022-11-25T11:18:27.368Z,429.00
2022-11-25T11:19:21.735Z,424.00
2022-11-25T11:20:20.310Z,430.00
2022-11-25T11:21:15.395Z,432.00
2022-11-25T11:22:10.413Z,425.00
2022-11-25T11:23:08.823Z,426.00
2022-11-25T11:24:01.309Z,435.00
2022-11-25T11:24:55.577Z,434.00
2022-11-25T11:25:50.585Z,430.00
2022-11-25T11:26:45.678Z,430.00
2022-11-25T11:27:40.699Z,432.00
2022-11-25T11:28:35.843Z,440.00
2022-11-25T11:29:31.796Z,429.00
2022-11-25T11:30:27.073Z,437.00
2022-11-25T11:31:22.795Z,427.00
2022-11-25T11:32:18.216Z,427.00
2022-11-25T11:33:13.458Z,432.00